createdAt,value
2023-03-12T00:00:28.548Z,10.50
2023-03-12T00:02:56.959Z,10.40
2023-03-12T00:05:25.864Z,10.20
2023-03-12T00:07:54.282Z,10.10
2023-03-12T00:10:22.542Z,10.10
2023-03-12T00:12:50.472Z,10.20
2023-03-12T00:15:20.000Z,10.20
2023-03-12T00:17:49.189Z,10.20
2023-03-12T00:20:17.677Z,10.10
2023-03-12T00:22:45.740Z,9.80
2023-03-12T00:25:21.258Z,9.60
2023-03-12T00:27:51.343Z,9.50
2023-03-12T00:30:20.826Z,9.60
2023-03-12T00:32:48.807Z,9.60
2023-03-12T00:35:16.831Z,9.60
2023-03-12T00:37:44.783Z,9.50
2023-03-12T00:40:13.857Z,9.50
2023-03-12T00:42:41.909Z,9.50
2023-03-12T00:45:10.612Z,9.60
2023-03-12T00:47:40.158Z,9.60
2023-03-12T00:50:09.065Z,9.50
2023-03-12T00:52:37.147Z,9.70
2023-03-12T00:55:05.611Z,9.80
2023-03-12T00:57:33.581Z,9.80
2023-03-12T01:00:01.693Z,9.80
2023-03-12T01:02:30.496Z,9.80
2023-03-12T01:04:59.864Z,9.70
2023-03-12T01:07:27.954Z,9.70
2023-03-12T01:09:56.744Z,9.60
2023-03-12T01:12:25.078Z,9.60
2023-03-12T01:14:53.220Z,9.60
2023-03-12T01:17:21.258Z,9.50
2023-03-12T01:19:49.245Z,9.60
2023-03-12T01:22:18.600Z,9.50
2023-03-12T01:24:46.576Z,9.50
2023-03-12T01:27:14.723Z,9.40
2023-03-12T01:29:42.857Z,9.40
2023-03-12T01:32:10.826Z,9.40
2023-03-12T01:34:38.831Z,9.40
2023-03-12T01:37:08.183Z,9.40
2023-03-12T01:39:38.204Z,9.30
2023-03-12T01:42:06.532Z,9.30
2023-03-12T01:44:53.842Z,9.30
2023-03-12T01:47:21.912Z,9.20
2023-03-12T01:49:51.607Z,9.10
2023-03-12T01:52:23.244Z,9.10
2023-03-12T01:54:58.240Z,9.10
2023-03-12T01:57:32.528Z,9.10
2023-03-12T02:00:05.684Z,9.10
2023-03-12T02:02:34.769Z,9.10
2023-03-12T02:05:10.232Z,9.00
2023-03-12T02:07:38.371Z,8.80
2023-03-12T02:10:08.411Z,8.90
2023-03-12T02:12:36.430Z,8.90
2023-03-12T02:15:05.534Z,8.90
2023-03-12T02:17:33.693Z,8.90
2023-03-12T02:20:08.733Z,8.90
2023-03-12T02:22:37.116Z,8.90
2023-03-12T02:25:17.090Z,9.00
2023-03-12T02:27:45.829Z,8.90
2023-03-12T02:30:16.219Z,9.00
2023-03-12T02:32:46.450Z,9.00
2023-03-12T02:35:15.963Z,8.90
2023-03-12T02:37:51.590Z,8.90
2023-03-12T02:40:28.275Z,8.90
2023-03-12T02:42:57.451Z,8.90
2023-03-12T02:45:26.926Z,8.90
2023-03-12T02:47:55.748Z,8.80
2023-03-12T02:50:24.033Z,8.80
2023-03-12T02:52:52.194Z,8.80
2023-03-12T02:55:21.698Z,8.70
2023-03-12T02:57:50.192Z,8.70
2023-03-12T03:00:19.954Z,8.60
2023-03-12T03:02:47.964Z,8.50
2023-03-12T03:05:15.975Z,8.60
2023-03-12T03:07:44.477Z,8.60
2023-03-12T03:10:13.163Z,8.50
2023-03-12T03:12:42.568Z,8.60
2023-03-12T03:15:11.936Z,8.50
2023-03-12T03:17:40.001Z,8.50
2023-03-12T03:20:11.358Z,8.50
2023-03-12T03:22:39.837Z,8.50
2023-03-12T03:25:09.398Z,8.50
2023-03-12T03:27:37.862Z,8.50
2023-03-12T03:30:09.109Z,8.40
2023-03-12T03:32:37.184Z,8.20
2023-03-12T03:35:05.570Z,8.10
2023-03-12T03:37:33.881Z,8.20
2023-03-12T03:40:01.935Z,8.30
2023-03-12T03:42:30.020Z,8.40
2023-03-12T03:44:57.969Z,8.50
2023-03-12T03:47:27.317Z,8.50
2023-03-12T03:49:55.340Z,8.50
2023-03-12T03:52:23.299Z,8.50
2023-03-12T03:54:51.227Z,8.30
2023-03-12T03:57:19.321Z,8.20
2023-03-12T03:59:47.262Z,8.30
2023-03-12T04:02:15.290Z,8.40
2023-03-12T04:04:44.659Z,8.50
2023-03-12T04:07:12.610Z,8.50
2023-03-12T04:09:40.683Z,8.50
2023-03-12T04:12:09.182Z,8.50
2023-03-12T04:14:40.298Z,8.50
2023-03-12T04:17:08.443Z,8.50
2023-03-12T04:19:37.098Z,8.50
2023-03-12T04:22:06.575Z,8.60
2023-03-12T04:24:34.550Z,8.60
2023-03-12T04:27:02.675Z,8.50
2023-03-12T04:29:30.662Z,8.50
2023-03-12T04:31:58.669Z,8.40
2023-03-12T04:34:26.732Z,8.20
2023-03-12T04:36:54.755Z,8.20
2023-03-12T04:39:24.101Z,8.20
2023-03-12T04:41:52.280Z,8.20
2023-03-12T04:44:20.497Z,8.20
2023-03-12T04:46:48.471Z,8.20
2023-03-12T04:49:16.521Z,8.00
2023-03-12T04:51:44.541Z,8.00
2023-03-12T04:54:12.539Z,8.00
2023-03-12T04:56:41.899Z,8.00
2023-03-12T04:59:10.035Z,8.00
2023-03-12T05:01:38.410Z,8.00
2023-03-12T05:04:07.244Z,8.00
2023-03-12T05:06:35.980Z,7.90
2023-03-12T05:09:04.699Z,7.90
2023-03-12T05:11:32.965Z,7.80
2023-03-12T05:14:02.936Z,7.80
2023-03-12T05:16:30.960Z,7.80
2023-03-12T05:18:59.294Z,7.90
2023-03-12T05:21:27.731Z,7.90
2023-03-12T05:23:55.785Z,7.90
2023-03-12T05:26:25.963Z,7.80
2023-03-12T05:28:54.068Z,7.80
2023-03-12T05:31:23.548Z,7.80
2023-03-12T05:33:53.034Z,7.80
2023-03-12T05:36:21.766Z,7.60
2023-03-12T05:38:49.768Z,7.60
2023-03-12T05:41:21.466Z,7.60
2023-03-12T05:43:49.657Z,7.70
2023-03-12T05:46:17.740Z,7.80
2023-03-12T05:48:47.190Z,7.80
2023-03-12T05:51:15.754Z,7.80
2023-03-12T05:53:43.727Z,7.80
2023-03-12T05:56:14.369Z,7.70
2023-03-12T05:58:42.965Z,7.70
2023-03-12T06:01:16.017Z,7.60
2023-03-12T06:03:44.127Z,7.60
2023-03-12T06:06:13.835Z,7.60
2023-03-12T06:08:42.752Z,7.60
2023-03-12T06:11:11.167Z,7.60
2023-03-12T06:13:39.909Z,7.70
2023-03-12T06:16:10.715Z,7.70
2023-03-12T06:18:39.389Z,7.60
2023-03-12T06:21:13.940Z,7.70
2023-03-12T06:23:42.914Z,7.70
2023-03-12T06:26:12.378Z,7.70
2023-03-12T06:28:42.241Z,7.80
2023-03-12T06:31:11.028Z,7.70
2023-03-12T06:33:39.344Z,7.80
2023-03-12T06:36:09.017Z,7.80
2023-03-12T06:38:38.948Z,7.80
2023-03-12T06:41:08.360Z,7.70
2023-03-12T06:43:38.731Z,7.70
2023-03-12T06:46:07.886Z,7.60
2023-03-12T06:48:37.344Z,7.60
2023-03-12T06:51:06.324Z,7.60
2023-03-12T06:53:34.367Z,7.60
2023-03-12T06:56:04.664Z,7.60
2023-03-12T06:58:33.094Z,7.60
2023-03-12T07:01:01.113Z,7.40
2023-03-12T07:03:29.081Z,7.30
2023-03-12T07:05:58.293Z,7.50
2023-03-12T07:08:29.897Z,7.50
2023-03-12T07:11:01.140Z,7.50
2023-03-12T07:13:31.599Z,7.60
2023-03-12T07:15:59.783Z,7.40
2023-03-12T07:18:28.298Z,7.40
2023-03-12T07:20:56.634Z,7.50
2023-03-12T07:23:25.831Z,7.60
2023-03-12T07:25:54.494Z,7.60
2023-03-12T07:28:23.694Z,7.60
2023-03-12T07:30:53.052Z,7.60
2023-03-12T07:33:22.744Z,7.70
2023-03-12T07:35:51.927Z,7.80
2023-03-12T07:38:20.224Z,7.80
2023-03-12T07:40:52.689Z,7.80
2023-03-12T07:43:21.858Z,7.90
2023-03-12T07:45:50.637Z,8.00
2023-03-12T07:48:20.338Z,8.00
2023-03-12T07:50:48.979Z,8.00
2023-03-12T07:53:17.073Z,8.10
2023-03-12T07:55:46.705Z,8.10
2023-03-12T07:58:15.687Z,8.10
2023-03-12T08:00:44.432Z,8.20
2023-03-12T08:03:13.275Z,8.30
2023-03-12T08:05:42.930Z,8.30
2023-03-12T08:08:11.164Z,8.40
2023-03-12T08:10:39.344Z,8.50
2023-03-12T08:13:07.364Z,8.50
2023-03-12T08:15:35.386Z,8.50
2023-03-12T08:18:03.343Z,8.60
2023-03-12T08:20:34.597Z,8.70
2023-03-12T08:23:03.942Z,8.70
2023-03-12T08:25:31.962Z,8.80
2023-03-12T08:28:00.194Z,8.90
2023-03-12T08:30:30.209Z,8.90
2023-03-12T08:32:58.744Z,9.00
2023-03-12T08:35:26.909Z,9.10
2023-03-12T08:37:56.994Z,9.20
2023-03-12T08:40:26.523Z,9.20
2023-03-12T08:42:54.517Z,9.30
2023-03-12T08:45:22.462Z,9.40
2023-03-12T08:47:50.494Z,9.40
2023-03-12T08:50:20.369Z,9.50
2023-03-12T08:52:48.328Z,9.60
2023-03-12T08:55:16.404Z,9.60
2023-03-12T08:57:45.739Z,9.70
2023-03-12T09:00:16.119Z,9.80
2023-03-12T09:02:45.510Z,9.80
2023-03-12T09:05:14.141Z,9.90
2023-03-12T09:07:42.160Z,10.00
2023-03-12T09:10:10.995Z,10.00
2023-03-12T09:12:38.995Z,10.10
2023-03-12T09:15:09.954Z,10.10
2023-03-12T09:17:38.771Z,10.10
2023-03-12T09:20:10.019Z,10.20
2023-03-12T09:22:38.105Z,10.30
2023-03-12T09:25:07.609Z,10.40
2023-03-12T09:27:37.975Z,10.50
2023-03-12T09:30:09.352Z,10.60
2023-03-12T09:32:37.460Z,10.70
2023-03-12T09:35:06.464Z,10.70
2023-03-12T09:37:35.086Z,10.80
2023-03-12T09:40:05.767Z,10.80
2023-03-12T09:42:41.461Z,10.90
2023-03-12T09:45:16.795Z,10.90
2023-03-12T09:47:50.367Z,11.00
2023-03-12T09:50:27.574Z,11.10
2023-03-12T09:53:00.754Z,11.30
2023-03-12T09:55:33.700Z,11.40
2023-03-12T09:58:01.724Z,11.40
2023-03-12T10:00:34.931Z,11.50
2023-03-12T10:03:17.995Z,11.60
2023-03-12T10:05:50.988Z,11.70
2023-03-12T10:08:28.318Z,11.80
2023-03-12T10:11:07.106Z,11.90
2023-03-12T10:13:47.100Z,11.90
2023-03-12T10:16:30.689Z,12.00
2023-03-12T10:19:11.403Z,12.10
2023-03-12T10:21:50.401Z,12.30
2023-03-12T10:24:31.507Z,12.40
2023-03-12T10:27:01.975Z,12.50
2023-03-12T10:29:33.793Z,12.50
2023-03-12T10:32:08.375Z,12.70
2023-03-12T10:34:44.027Z,12.70
2023-03-12T10:37:18.422Z,12.70
2023-03-12T10:39:47.041Z,12.70
2023-03-12T10:42:19.017Z,12.80
2023-03-12T10:44:49.954Z,12.70
2023-03-12T10:47:31.417Z,12.80
2023-03-12T10:50:16.586Z,12.80
2023-03-12T10:52:44.959Z,12.80
2023-03-12T10:55:21.579Z,12.80
2023-03-12T10:57:50.202Z,12.90
2023-03-12T11:00:24.256Z,12.90
2023-03-12T11:03:03.825Z,12.90
2023-03-12T11:05:34.698Z,13.00
2023-03-12T11:08:04.446Z,13.00
2023-03-12T11:10:44.909Z,13.00
2023-03-12T11:13:25.709Z,13.10
2023-03-12T11:15:54.286Z,13.10
2023-03-12T11:18:35.795Z,13.20
2023-03-12T11:21:19.826Z,13.20
2023-03-12T11:24:07.400Z,13.20
2023-03-12T11:26:41.107Z,13.30
2023-03-12T11:29:19.488Z,13.30
2023-03-12T11:31:57.625Z,13.30
2023-03-12T11:34:29.523Z,13.40
2023-03-12T11:37:07.573Z,13.50
2023-03-12T11:39:48.463Z,13.50
2023-03-12T11:42:31.382Z,13.60
2023-03-12T11:45:14.178Z,13.70
2023-03-12T11:48:00.518Z,13.80
2023-03-12T11:50:44.021Z,13.90
2023-03-12T11:53:31.151Z,13.90
2023-03-12T11:56:11.367Z,14.10
2023-03-12T11:58:54.323Z,14.10
2023-03-12T12:01:31.479Z,14.20
2023-03-12T12:04:21.650Z,14.20
2023-03-12T12:07:03.049Z,14.20
2023-03-12T12:09:39.233Z,14.20
2023-03-12T12:12:19.015Z,14.30
2023-03-12T12:15:01.824Z,14.40
2023-03-12T12:17:41.594Z,14.40
2023-03-12T12:20:21.635Z,14.50
2023-03-12T12:23:10.430Z,14.50
2023-03-12T12:26:05.779Z,14.60
2023-03-12T12:28:55.422Z,14.60
2023-03-12T12:31:33.159Z,14.60
2023-03-12T12:34:26.723Z,14.70
2023-03-12T12:37:02.245Z,14.70
2023-03-12T12:39:36.254Z,14.70
2023-03-12T12:42:07.240Z,14.80
2023-03-12T12:44:41.197Z,14.90
2023-03-12T12:47:17.503Z,14.90
2023-03-12T12:49:48.805Z,14.90
2023-03-12T12:52:20.041Z,14.90
2023-03-12T12:54:59.628Z,15.10
2023-03-12T12:57:36.678Z,15.00
2023-03-12T13:00:16.575Z,15.00
2023-03-12T13:02:48.000Z,15.10
2023-03-12T13:05:26.579Z,15.10
2023-03-12T13:07:55.121Z,15.10
2023-03-12T13:10:57.048Z,15.10
2023-03-12T13:13:30.818Z,15.20
2023-03-12T13:16:31.135Z,15.20
2023-03-12T13:19:00.362Z,15.20
2023-03-12T13:21:36.699Z,15.20
2023-03-12T13:24:18.358Z,15.20
2023-03-12T13:27:01.660Z,15.20
2023-03-12T13:29:41.216Z,15.30
2023-03-12T13:33:01.727Z,15.30
2023-03-12T13:35:32.412Z,15.40
2023-03-12T13:38:06.869Z,15.40
2023-03-12T13:40:37.600Z,15.50
2023-03-12T13:43:12.629Z,15.50
2023-03-12T13:46:00.790Z,15.60
2023-03-12T13:48:30.345Z,15.70
2023-03-12T13:51:00.825Z,15.70
2023-03-12T13:53:34.556Z,15.80
2023-03-12T13:56:05.583Z,15.80
2023-03-12T13:58:41.591Z,15.90
2023-03-12T14:01:16.356Z,15.90
2023-03-12T14:03:49.743Z,15.90
2023-03-12T14:06:20.551Z,16.00
2023-03-12T14:09:09.471Z,16.00
2023-03-12T14:11:55.191Z,16.10
2023-03-12T14:14:41.562Z,16.10
2023-03-12T14:17:18.076Z,16.00
2023-03-12T14:19:52.460Z,16.10
2023-03-12T14:22:23.866Z,16.10
2023-03-12T14:24:55.679Z,16.00
2023-03-12T14:27:27.972Z,16.00
2023-03-12T14:29:59.184Z,15.90
2023-03-12T14:32:30.789Z,15.90
2023-03-12T14:35:09.575Z,15.80
2023-03-12T14:37:42.286Z,15.80
2023-03-12T14:40:21.903Z,15.70
2023-03-12T14:42:49.992Z,15.80
2023-03-12T14:45:20.255Z,15.70
2023-03-12T14:47:50.192Z,15.70
2023-03-12T14:50:22.021Z,15.70
2023-03-12T14:52:50.027Z,15.70
2023-03-12T14:55:22.477Z,15.80
2023-03-12T14:57:51.084Z,15.80
2023-03-12T15:00:27.446Z,15.80
2023-03-12T15:02:58.929Z,15.90
2023-03-12T15:05:28.412Z,15.80
2023-03-12T15:08:02.887Z,15.80
2023-03-12T15:10:32.962Z,15.80
2023-03-12T15:13:02.372Z,15.80
2023-03-12T15:15:38.070Z,15.70
2023-03-12T15:18:08.342Z,15.70
2023-03-12T15:20:38.199Z,15.70
2023-03-12T15:23:07.851Z,15.60
2023-03-12T15:25:36.210Z,15.50
2023-03-12T15:28:09.527Z,15.50
2023-03-12T15:30:39.678Z,15.40
2023-03-12T15:33:13.970Z,15.40
2023-03-12T15:35:58.584Z,15.30
2023-03-12T15:38:27.223Z,15.30
2023-03-12T15:41:00.243Z,15.20
2023-03-12T15:43:28.704Z,15.10
2023-03-12T15:46:02.745Z,15.00
2023-03-12T15:48:33.896Z,14.90
2023-03-12T15:51:03.554Z,14.90
2023-03-12T15:53:33.410Z,14.80
2023-03-12T15:56:06.161Z,14.80
2023-03-12T15:58:36.780Z,14.80
2023-03-12T16:01:10.438Z,14.70
2023-03-12T16:03:39.021Z,14.70
2023-03-12T16:06:14.228Z,14.60
2023-03-12T16:08:45.646Z,14.60
2023-03-12T16:11:18.297Z,14.60
2023-03-12T16:13:47.813Z,14.60
2023-03-12T16:16:16.313Z,14.50
2023-03-12T16:18:45.105Z,14.60
2023-03-12T16:21:14.480Z,14.50
2023-03-12T16:23:42.460Z,14.50
2023-03-12T16:26:12.428Z,14.40
2023-03-12T16:28:40.904Z,14.40
2023-03-12T16:31:13.411Z,14.30
2023-03-12T16:33:41.489Z,14.30
2023-03-12T16:36:15.905Z,14.20
2023-03-12T16:38:44.136Z,14.20
2023-03-12T16:41:14.670Z,14.20
2023-03-12T16:43:44.111Z,14.10
2023-03-12T16:46:16.178Z,14.10
2023-03-12T16:48:44.247Z,14.00
2023-03-12T16:51:16.418Z,13.90
2023-03-12T16:53:44.801Z,13.90
2023-03-12T16:56:18.614Z,13.90
2023-03-12T16:58:47.207Z,13.90
2023-03-12T17:01:16.876Z,13.80
2023-03-12T17:03:49.086Z,13.70
2023-03-12T17:06:21.220Z,13.70
2023-03-12T17:08:49.486Z,13.60
2023-03-12T17:11:20.528Z,13.60
2023-03-12T17:13:52.528Z,13.50
2023-03-12T17:16:20.962Z,13.40
2023-03-12T17:18:48.966Z,13.30
2023-03-12T17:21:20.295Z,13.30
2023-03-12T17:23:52.628Z,13.30
2023-03-12T17:26:20.846Z,13.30
2023-03-12T17:28:49.032Z,13.20
2023-03-12T17:31:17.149Z,13.10
2023-03-12T17:33:45.285Z,13.10
2023-03-12T17:36:13.284Z,13.10
2023-03-12T17:38:42.745Z,13.10
2023-03-12T17:41:25.464Z,13.00
2023-03-12T17:43:54.836Z,13.00
2023-03-12T17:46:23.123Z,13.00
2023-03-12T17:48:51.161Z,12.90
2023-03-12T17:51:19.159Z,12.80
2023-03-12T17:53:48.940Z,12.80
2023-03-12T17:56:18.172Z,12.70
2023-03-12T17:58:46.307Z,12.70
2023-03-12T18:01:23.877Z,12.60
2023-03-12T18:03:52.088Z,12.50
2023-03-12T18:06:20.111Z,12.50
2023-03-12T18:08:49.457Z,12.50
2023-03-12T18:11:17.592Z,12.50
2023-03-12T18:13:47.497Z,12.40
2023-03-12T18:16:16.558Z,12.40
2023-03-12T18:18:53.041Z,12.40
2023-03-12T18:21:21.106Z,12.30
2023-03-12T18:23:50.841Z,12.20
2023-03-12T18:26:20.807Z,12.20
2023-03-12T18:28:50.823Z,12.10
2023-03-12T18:31:18.888Z,12.10
2023-03-12T18:33:46.996Z,12.10
2023-03-12T18:36:15.022Z,12.00
2023-03-12T18:38:42.990Z,12.00
2023-03-12T18:41:13.846Z,11.90
2023-03-12T18:43:42.733Z,11.90
2023-03-12T18:46:11.410Z,11.80
2023-03-12T18:48:40.522Z,11.80
2023-03-12T18:51:09.750Z,11.80
2023-03-12T18:53:37.717Z,11.70
2023-03-12T18:56:06.436Z,11.60
2023-03-12T18:58:35.719Z,11.60
2023-03-12T19:01:03.756Z,11.60
2023-03-12T19:03:36.613Z,11.60
2023-03-12T19:06:06.519Z,11.60
2023-03-12T19:08:34.903Z,11.60
2023-03-12T19:11:05.248Z,11.60
2023-03-12T19:13:33.371Z,11.50
2023-03-12T19:16:05.009Z,11.40
2023-03-12T19:18:33.161Z,11.40
2023-03-12T19:21:02.319Z,11.40
2023-03-12T19:23:30.531Z,11.40
2023-03-12T19:25:58.577Z,11.40
2023-03-12T19:28:26.660Z,11.30
2023-03-12T19:31:00.475Z,11.20
2023-03-12T19:33:30.357Z,11.20
2023-03-12T19:35:59.054Z,11.10
2023-03-12T19:38:27.350Z,11.20
2023-03-12T19:40:57.975Z,11.20
2023-03-12T19:43:26.717Z,11.20
2023-03-12T19:45:55.844Z,11.10
2023-03-12T19:48:25.420Z,11.20
2023-03-12T19:50:56.057Z,11.20
2023-03-12T19:53:24.775Z,11.10
2023-03-12T19:55:53.248Z,11.00
2023-03-12T19:58:21.628Z,11.00
2023-03-12T20:00:50.162Z,10.90
2023-03-12T20:03:18.981Z,10.80
2023-03-12T20:05:48.502Z,10.70
2023-03-12T20:08:20.936Z,10.70
2023-03-12T20:10:49.925Z,10.60
2023-03-12T20:13:18.793Z,10.60
2023-03-12T20:15:48.658Z,10.60
2023-03-12T20:18:17.231Z,10.50
2023-03-12T20:20:47.648Z,10.60
2023-03-12T20:23:17.625Z,10.60
2023-03-12T20:25:49.998Z,10.60
2023-03-12T20:28:18.790Z,10.60
2023-03-12T20:30:48.733Z,10.50
2023-03-12T20:33:17.303Z,10.50
2023-03-12T20:35:45.826Z,10.50
2023-03-12T20:38:14.550Z,10.50
2023-03-12T20:40:49.960Z,10.40
2023-03-12T20:43:18.758Z,10.40
2023-03-12T20:45:49.186Z,10.40
2023-03-12T20:48:17.855Z,10.30
2023-03-12T20:50:46.297Z,10.30
2023-03-12T20:53:14.707Z,10.30
2023-03-12T20:55:43.058Z,10.20
2023-03-12T20:58:12.534Z,10.20
2023-03-12T21:00:42.833Z,10.10
2023-03-12T21:03:13.236Z,10.10
2023-03-12T21:05:41.264Z,10.00
2023-03-12T21:08:09.284Z,10.00
2023-03-12T21:10:37.934Z,9.90
2023-03-12T21:13:06.129Z,9.80
2023-03-12T21:15:35.543Z,9.70
2023-03-12T21:18:03.528Z,9.80
2023-03-12T21:20:31.750Z,9.80
2023-03-12T21:23:00.842Z,9.80
2023-03-12T21:25:29.684Z,9.80
2023-03-12T21:27:57.747Z,9.70
2023-03-12T21:30:25.757Z,9.70
2023-03-12T21:32:55.506Z,9.70
2023-03-12T21:35:23.710Z,9.70
2023-03-12T21:37:51.811Z,9.70
2023-03-12T21:40:20.091Z,9.60
2023-03-12T21:42:48.135Z,9.60
2023-03-12T21:45:16.232Z,9.60
2023-03-12T21:47:44.288Z,9.60
2023-03-12T21:50:13.987Z,9.50
2023-03-12T21:52:47.760Z,9.50
2023-03-12T21:55:16.419Z,9.40
2023-03-12T21:57:46.071Z,9.50
2023-03-12T22:00:15.686Z,9.50
2023-03-12T22:02:45.133Z,9.50
2023-03-12T22:05:14.783Z,9.50
2023-03-12T22:07:42.793Z,9.50
2023-03-12T22:10:12.241Z,9.40
2023-03-12T22:12:40.750Z,9.40
2023-03-12T22:15:10.021Z,9.30
2023-03-12T22:17:38.145Z,9.30
2023-03-12T22:20:07.975Z,9.30
2023-03-12T22:22:37.369Z,9.30
2023-03-12T22:25:06.091Z,9.30
2023-03-12T22:27:34.100Z,9.30
2023-03-12T22:30:02.151Z,9.30
2023-03-12T22:32:30.334Z,9.20
2023-03-12T22:34:58.330Z,9.20
2023-03-12T22:37:26.551Z,9.20
2023-03-12T22:39:58.849Z,9.20
2023-03-12T22:42:26.865Z,9.10
2023-03-12T22:44:54.901Z,9.10
2023-03-12T22:47:23.429Z,9.10
2023-03-12T22:49:52.963Z,9.10
2023-03-12T22:52:21.074Z,9.10
2023-03-12T22:54:49.489Z,9.10
2023-03-12T22:57:18.988Z,9.10
2023-03-12T22:59:48.915Z,9.10
2023-03-12T23:02:17.251Z,9.10
2023-03-12T23:04:45.645Z,9.00
2023-03-12T23:07:16.132Z,9.00
2023-03-12T23:09:45.807Z,8.90
2023-03-12T23:12:13.748Z,8.90
2023-03-12T23:14:43.196Z,8.90
2023-03-12T23:17:13.365Z,8.80
2023-03-12T23:19:42.731Z,8.80
2023-03-12T23:22:16.636Z,8.80
2023-03-12T23:24:44.714Z,8.80
2023-03-12T23:27:12.671Z,8.70
2023-03-12T23:29:43.172Z,8.70
2023-03-12T23:32:11.146Z,8.60
2023-03-12T23:34:39.455Z,8.60
2023-03-12T23:37:07.578Z,8.60
2023-03-12T23:39:51.804Z,8.70
2023-03-12T23:42:22.444Z,8.70
2023-03-12T23:44:52.010Z,8.70
2023-03-12T23:47:20.033Z,8.70
2023-03-12T23:49:47.962Z,8.60
2023-03-12T23:52:16.444Z,8.50
2023-03-12T23:54:44.429Z,8.50
2023-03-12T23:57:12.410Z,8.40
2023-03-12T23:59:43.198Z,8.40
